Terminal Aerodrome Forecast
Issued by NWS

Home | Current Version | Previous Version | Text Only | Print | Product List | Glossary Off
Versions: 1 2 3 4 5 6 7 8 9 10 11 12 13 14 15 16 17 18 19

737
FTUS43 KMPX 220028 CCA
TAFAXN
TAF COR
KAXN 220028Z 2200/2224 12007KT P6SM SCT020 OVC050
     FM220400 13005KT P6SM BKN020
     FM220600 14004KT P6SM BKN012
     FM220800 16004KT 4SM BR BKN008
      TEMPO 2209/2213 2SM BR BKN005
     FM221400 16006KT P6SM BKN010
     FM221700 16006KT P6SM SCT030=

USA.gov is the U.S. government's official web portal to all federal, state and local government web resources and services.